Time;durP1;ratioP1;P1;durP2;ratioP2;P2;SDS_P1;SDS_P2;PMS_P1;PMS_P2;Temp;Humidity;BMP_temperature;BMP_pressure;BME280_temperature;BME280_humidity;BME280_pressure;Samples;Min_cycle;Max_cycle;Signal;HPM_P1;HPM_P2
2021/06/05 00:01:29;;;;;;;12.43;7.22;;;23.10;46.60;;;;;;6172768;28;80576;-66
2021/06/05 00:04:29;;;;;;;12.70;7.82;;;23.00;46.60;;;;;;6166416;28;80349;-65
2021/06/05 00:07:30;;;;;;;18.10;8.93;;;23.10;46.60;;;;;;6170002;28;81523;-66
2021/06/05 00:10:30;;;;;;;13.68;7.60;;;23.00;47.40;;;;;;6181508;28;80473;-66
2021/06/05 00:13:31;;;;;;;13.40;7.43;;;23.00;46.60;;;;;;6180919;28;83298;-66
2021/06/05 00:16:31;;;;;;;13.20;7.35;;;23.10;46.80;;;;;;6165134;28;80506;-66
2021/06/05 00:19:32;;;;;;;10.85;6.80;;;23.00;46.70;;;;;;6170914;28;80453;-66
2021/06/05 00:22:32;;;;;;;12.07;7.05;;;23.10;46.80;;;;;;6181040;28;80702;-64
2021/06/05 00:25:33;;;;;;;12.93;7.15;;;23.00;46.80;;;;;;6164727;28;80337;-66
2021/06/05 00:28:33;;;;;;;13.52;7.60;;;23.00;46.80;;;;;;6155336;28;80862;-66
2021/06/05 00:31:34;;;;;;;10.00;6.63;;;23.00;46.90;;;;;;6157325;28;81444;-66
2021/06/05 00:34:34;;;;;;;11.85;6.60;;;23.00;47.00;;;;;;6177449;28;80913;-67
2021/06/05 00:37:35;;;;;;;10.07;6.22;;;23.10;47.10;;;;;;6185183;28;80602;-67
2021/06/05 00:40:36;;;;;;;12.48;7.25;;;23.00;47.00;;;;;;6185462;28;80385;-67
2021/06/05 00:43:37;;;;;;;10.60;6.75;;;23.00;47.00;;;;;;6183356;28;83561;-66
2021/06/05 00:46:37;;;;;;;13.70;7.53;;;23.00;47.00;;;;;;6173747;28;81427;-65
2021/06/05 00:49:38;;;;;;;10.80;6.57;;;23.00;47.10;;;;;;6158121;28;82238;-66
2021/06/05 00:52:39;;;;;;;12.95;6.65;;;23.00;47.10;;;;;;6198592;28;83255;-66
2021/06/05 00:55:41;;;;;;;14.00;8.13;;;23.10;47.00;;;;;;6183645;28;83275;-67
2021/06/05 00:58:42;;;;;;;9.57;6.65;;;23.00;47.00;;;;;;6185036;28;81558;-66
2021/06/05 01:01:42;;;;;;;11.52;5.75;;;23.00;47.00;;;;;;6185864;28;80282;-67
2021/06/05 01:04:43;;;;;;;10.52;6.28;;;23.00;47.10;;;;;;6166701;28;83273;-66
2021/06/05 01:07:43;;;;;;;10.60;6.70;;;23.00;47.10;;;;;;6161570;28;80557;-66
2021/06/05 01:10:44;;;;;;;11.23;6.22;;;23.00;47.10;;;;;;6158489;28;81479;-66
2021/06/05 01:13:45;;;;;;;11.15;6.55;;;23.00;46.90;;;;;;6159569;28;82702;-66
2021/06/05 01:16:46;;;;;;;10.52;6.10;;;23.00;47.00;;;;;;6177637;28;81379;-65
2021/06/05 01:19:47;;;;;;;11.80;6.97;;;23.00;47.00;;;;;;6190593;28;82731;-65
2021/06/05 01:22:47;;;;;;;13.75;6.97;;;23.00;47.00;;;;;;6159842;28;81378;-65
2021/06/05 01:25:48;;;;;;;10.57;6.22;;;23.00;46.80;;;;;;6168197;28;82146;-65
2021/06/05 01:28:49;;;;;;;10.52;6.28;;;23.00;47.00;;;;;;6175925;28;83487;-65
2021/06/05 01:31:50;;;;;;;11.07;5.95;;;23.00;46.90;;;;;;6182496;28;82780;-66
2021/06/05 01:34:51;;;;;;;9.38;6.30;;;23.00;47.00;;;;;;6199390;28;83241;-66
2021/06/05 01:37:56;;;;;;;8.68;5.95;;;23.00;46.90;;;;;;6181796;28;81052;-65
2021/06/05 01:40:57;;;;;;;11.38;6.00;;;23.00;46.80;;;;;;6177216;28;80529;-66
2021/06/05 01:43:57;;;;;;;9.75;6.30;;;23.00;47.20;;;;;;6164169;28;83378;-66
2021/06/05 01:46:59;;;;;;;11.35;6.55;;;23.00;47.00;;;;;;6160205;28;80866;-65
2021/06/05 01:50:01;;;;;;;11.88;6.63;;;23.00;46.90;;;;;;6157547;28;88847;-65
2021/06/05 01:53:03;;;;;;;11.95;7.07;;;23.00;46.90;;;;;;6177335;28;81720;-66
2021/06/05 01:56:03;;;;;;;10.18;6.75;;;23.00;47.00;;;;;;6197744;28;84052;-66
2021/06/05 01:59:08;;;;;;;12.13;6.68;;;23.00;47.00;;;;;;6182735;28;83250;-66
2021/06/05 02:02:15;;;;;;;12.68;6.43;;;23.00;47.20;;;;;;6175094;28;82674;-66
2021/06/05 02:05:17;;;;;;;11.18;6.43;;;23.00;47.10;;;;;;6192849;28;83606;-66
2021/06/05 02:08:21;;;;;;;8.50;5.75;;;23.00;47.10;;;;;;6160433;28;80418;-65
2021/06/05 02:11:22;;;;;;;9.45;6.07;;;23.00;47.30;;;;;;6177878;28;82320;-66
2021/06/05 02:14:27;;;;;;;10.98;6.57;;;23.00;47.20;;;;;;6142747;28;83285;-66
2021/06/05 02:17:31;;;;;;;10.13;6.70;;;23.00;47.20;;;;;;6181554;28;85551;-65
2021/06/05 02:20:33;;;;;;;12.35;6.35;;;23.00;47.30;;;;;;6182542;28;83227;-66
2021/06/05 02:23:38;;;;;;;10.70;6.85;;;23.00;47.30;;;;;;6175628;28;87789;-66
2021/06/05 02:26:40;;;;;;;12.63;7.20;;;23.00;47.30;;;;;;6157756;28;83156;-66
2021/06/05 02:29:41;;;;;;;15.23;7.18;;;23.00;47.40;;;;;;6157212;28;82641;-66
2021/06/05 02:32:45;;;;;;;9.27;6.25;;;23.00;47.30;;;;;;6158140;28;80947;-66
2021/06/05 02:35:49;;;;;;;10.23;6.32;;;23.00;47.50;;;;;;6197807;28;81428;-66
2021/06/05 02:39:12;;;;;;;13.02;6.75;;;23.00;47.50;;;;;;6178058;28;80618;-66
2021/06/05 02:42:14;;;;;;;14.57;6.68;;;23.00;47.50;;;;;;6157899;28;82767;-66
2021/06/05 02:45:17;;;;;;;11.48;6.80;;;23.00;47.60;;;;;;6162706;28;83605;-66
2021/06/05 02:48:17;;;;;;;9.02;5.82;;;23.00;47.60;;;;;;6182739;28;80603;-66
2021/06/05 02:51:18;;;;;;;9.70;6.18;;;23.00;47.50;;;;;;6177055;28;81479;-66
2021/06/05 02:54:20;;;;;;;9.15;6.20;;;23.00;47.60;;;;;;6161883;28;82577;-66
2021/06/05 02:57:22;;;;;;;13.02;6.15;;;23.00;47.60;;;;;;6177774;28;83342;-65
2021/06/05 03:00:23;;;;;;;11.30;6.95;;;23.00;47.50;;;;;;6175746;28;83025;-66
2021/06/05 03:03:24;;;;;;;10.93;6.40;;;23.00;47.60;;;;;;6162396;28;81562;-66
2021/06/05 03:06:26;;;;;;;11.40;7.07;;;23.00;47.70;;;;;;6175843;28;80396;-66
2021/06/05 03:09:27;;;;;;;10.55;6.03;;;23.00;47.60;;;;;;6171874;28;82801;-66
2021/06/05 03:12:29;;;;;;;11.65;6.45;;;23.00;47.70;;;;;;6164971;28;80767;-66
2021/06/05 03:15:30;;;;;;;11.45;6.50;;;23.00;47.70;;;;;;6197036;28;81177;-66
2021/06/05 03:18:31;;;;;;;12.75;7.60;;;23.00;47.70;;;;;;6182230;28;80524;-66
2021/06/05 03:21:36;;;;;;;13.85;6.85;;;23.00;47.70;;;;;;6166847;28;82834;-66
2021/06/05 03:24:55;;;;;;;10.32;7.35;;;23.00;47.70;;;;;;6154186;28;80177;-66
2021/06/05 03:27:58;;;;;;;9.32;6.13;;;23.00;47.70;;;;;;6155588;28;83550;-66
2021/06/05 03:30:59;;;;;;;10.65;6.65;;;23.00;47.70;;;;;;6166779;28;81792;-66
2021/06/05 03:34:01;;;;;;;11.85;6.95;;;23.00;47.80;;;;;;6180552;28;80896;-66
2021/06/05 03:37:03;;;;;;;12.10;6.65;;;23.00;47.90;;;;;;6180205;28;81784;-66
2021/06/05 03:40:06;;;;;;;12.10;7.20;;;23.00;47.80;;;;;;6168761;28;82848;-66
2021/06/05 03:43:09;;;;;;;9.43;6.40;;;23.00;48.10;;;;;;6184906;28;83273;-65
2021/06/05 03:46:11;;;;;;;14.13;6.82;;;23.00;48.00;;;;;;6169028;28;80775;-65
2021/06/05 03:49:12;;;;;;;12.32;7.25;;;23.00;47.90;;;;;;6168446;28;83504;-66
2021/06/05 03:52:12;;;;;;;11.60;6.57;;;23.00;48.00;;;;;;6178773;28;82924;-66
2021/06/05 03:55:13;;;;;;;10.38;6.30;;;23.00;47.90;;;;;;6181661;28;80755;-66
2021/06/05 03:58:14;;;;;;;11.57;7.05;;;23.00;48.10;;;;;;6178286;28;83200;-66
2021/06/05 04:01:16;;;;;;;11.13;6.45;;;23.00;48.00;;;;;;6162459;28;83334;-66
2021/06/05 04:04:19;;;;;;;11.10;6.90;;;23.00;48.20;;;;;;6156441;28;80327;-67
2021/06/05 04:07:20;;;;;;;11.05;6.47;;;23.00;48.00;;;;;;6168171;28;80616;-66
2021/06/05 04:10:22;;;;;;;12.40;6.95;;;23.00;48.10;;;;;;6165834;28;81897;-66
2021/06/05 04:13:23;;;;;;;13.13;6.93;;;23.00;47.80;;;;;;6165240;28;81201;-67
2021/06/05 04:16:23;;;;;;;9.60;6.55;;;23.00;48.00;;;;;;6160251;28;80467;-67
2021/06/05 04:19:24;;;;;;;8.60;6.45;;;23.00;48.00;;;;;;6171077;28;80309;-65
2021/06/05 04:22:24;;;;;;;9.43;6.78;;;23.00;48.00;;;;;;6181691;28;80173;-67
2021/06/05 04:25:25;;;;;;;10.23;6.53;;;23.00;48.00;;;;;;6181180;28;80413;-65
2021/06/05 04:28:25;;;;;;;12.50;6.85;;;22.90;48.40;;;;;;6180879;28;80892;-64
2021/06/05 04:31:26;;;;;;;14.88;6.22;;;22.90;47.70;;;;;;6180791;28;82267;-65
2021/06/05 04:34:26;;;;;;;9.80;5.65;;;23.00;47.90;;;;;;6179911;28;80476;-63
2021/06/05 04:37:27;;;;;;;10.50;6.15;;;22.90;48.40;;;;;;6181511;28;80464;-64
2021/06/05 04:40:27;;;;;;;11.35;6.38;;;22.90;48.00;;;;;;6164554;28;80373;-63
2021/06/05 04:43:28;;;;;;;9.52;6.60;;;22.90;48.10;;;;;;6157036;28;80531;-64
2021/06/05 04:46:28;;;;;;;10.70;6.28;;;22.90;48.00;;;;;;6171374;28;80524;-64
2021/06/05 04:49:29;;;;;;;8.77;5.65;;;22.90;48.00;;;;;;6179611;28;80798;-64
2021/06/05 04:52:29;;;;;;;16.88;6.95;;;22.90;48.60;;;;;;6163898;28;83364;-64
2021/06/05 04:55:30;;;;;;;8.15;5.80;;;22.90;48.80;;;;;;6171409;28;80435;-65
2021/06/05 04:58:31;;;;;;;8.90;5.75;;;22.90;48.80;;;;;;6180507;28;80070;-65
2021/06/05 05:01:31;;;;;;;8.05;5.40;;;23.00;49.40;;;;;;6165486;28;80644;-65
2021/06/05 05:04:32;;;;;;;11.02;5.72;;;23.00;49.50;;;;;;6156122;28;80790;-66
2021/06/05 05:07:32;;;;;;;10.50;5.55;;;23.00;49.30;;;;;;6168663;28;80597;-66
2021/06/05 05:10:33;;;;;;;10.32;5.72;;;23.00;49.60;;;;;;6175981;28;80488;-64
2021/06/05 05:13:33;;;;;;;10.25;5.30;;;23.00;49.90;;;;;;6179851;28;80942;-64
2021/06/05 05:16:34;;;;;;;11.20;5.78;;;23.10;49.90;;;;;;6180696;28;80575;-64
2021/06/05 05:19:34;;;;;;;10.32;5.15;;;23.10;50.00;;;;;;6184428;28;80346;-65
2021/06/05 05:22:35;;;;;;;10.68;5.20;;;23.10;49.80;;;;;;6167563;28;80503;-64
2021/06/05 05:25:35;;;;;;;8.10;5.43;;;23.10;49.80;;;;;;6171563;28;80393;-64
2021/06/05 05:28:36;;;;;;;8.82;5.13;;;23.10;49.80;;;;;;6182596;28;88539;-64
2021/06/05 05:31:36;;;;;;;8.63;4.88;;;23.00;50.10;;;;;;6184502;28;81772;-67
2021/06/05 05:34:37;;;;;;;9.32;5.70;;;23.10;50.30;;;;;;6183249;28;80361;-65
2021/06/05 05:37:37;;;;;;;11.48;5.88;;;23.10;50.50;;;;;;6199863;28;80208;-65
2021/06/05 05:40:38;;;;;;;12.70;4.90;;;23.10;50.70;;;;;;6181549;28;81054;-65
2021/06/05 05:43:38;;;;;;;7.40;4.88;;;23.10;50.90;;;;;;6184497;28;80776;-65
2021/06/05 05:46:40;;;;;;;9.68;4.65;;;23.10;51.00;;;;;;6166767;28;80357;-65
2021/06/05 05:49:40;;;;;;;7.97;4.95;;;23.10;51.20;;;;;;6158708;28;80343;-64
2021/06/05 05:52:41;;;;;;;6.97;4.60;;;23.10;51.10;;;;;;6173047;28;81494;-66
2021/06/05 05:55:41;;;;;;;6.50;4.65;;;23.10;51.10;;;;;;6165653;28;83339;-65
2021/06/05 05:58:42;;;;;;;9.18;5.47;;;23.10;51.50;;;;;;6163800;28;81763;-65
2021/06/05 06:01:42;;;;;;;6.72;4.60;;;23.10;51.30;;;;;;6177249;28;80385;-66
2021/06/05 06:04:43;;;;;;;7.72;4.45;;;23.10;51.30;;;;;;6182775;28;80851;-65
2021/06/05 06:07:43;;;;;;;14.98;5.20;;;23.10;51.40;;;;;;6183355;28;82083;-65
2021/06/05 06:10:44;;;;;;;7.95;4.75;;;23.20;51.50;;;;;;6183473;28;80501;-65
2021/06/05 06:13:44;;;;;;;8.13;5.00;;;23.20;51.50;;;;;;6179003;28;80648;-67
2021/06/05 06:16:45;;;;;;;8.75;4.47;;;23.20;51.70;;;;;;6183191;28;80417;-65
2021/06/05 06:19:45;;;;;;;8.75;4.90;;;23.20;51.70;;;;;;6164601;28;80688;-66
2021/06/05 06:22:46;;;;;;;7.60;5.25;;;23.20;51.40;;;;;;6173020;28;84826;-67
2021/06/05 06:25:49;;;;;;;6.82;5.05;;;23.20;51.90;;;;;;6181375;28;81396;-66
2021/06/05 06:28:50;;;;;;;11.25;5.32;;;23.30;51.90;;;;;;6181116;28;80459;-65
2021/06/05 06:31:51;;;;;;;13.30;5.18;;;23.30;51.60;;;;;;6164145;28;80363;-65
2021/06/05 06:34:51;;;;;;;7.65;4.38;;;23.30;52.10;;;;;;6187934;28;82906;-67
2021/06/05 06:37:52;;;;;;;8.18;4.95;;;23.30;51.80;;;;;;6163953;28;80242;-64
2021/06/05 06:40:52;;;;;;;9.20;4.97;;;23.20;52.10;;;;;;6175161;28;80769;-65
2021/06/05 06:43:53;;;;;;;15.35;6.35;;;23.20;51.50;;;;;;6180839;28;80483;-65
2021/06/05 06:46:53;;;;;;;5.88;4.68;;;23.20;51.30;;;;;;6164259;28;82094;-63
2021/06/05 06:49:54;;;;;;;6.97;4.75;;;23.20;51.00;;;;;;6186183;28;80795;-63
2021/06/05 06:52:54;;;;;;;8.13;5.22;;;23.10;51.40;;;;;;6161736;28;80452;-62
2021/06/05 06:55:54;;;;;;;9.68;5.32;;;23.10;51.10;;;;;;6176449;28;81561;-62
2021/06/05 06:58:55;;;;;;;8.30;4.95;;;23.10;51.00;;;;;;6167164;28;80357;-64
2021/06/05 07:01:55;;;;;;;8.60;4.85;;;23.10;50.80;;;;;;6154809;28;81377;-65
2021/06/05 07:04:56;;;;;;;8.23;5.40;;;23.10;51.10;;;;;;6172765;28;80215;-64
2021/06/05 07:07:57;;;;;;;9.68;4.90;;;23.10;51.40;;;;;;6197810;28;80722;-64
2021/06/05 07:10:57;;;;;;;9.35;5.63;;;23.10;50.90;;;;;;6196712;28;82923;-62
2021/06/05 07:13:58;;;;;;;11.85;5.25;;;23.10;50.90;;;;;;6181989;28;81288;-67
2021/06/05 07:17:00;;;;;;;7.82;4.63;;;23.10;50.90;;;;;;6180944;28;82091;-64
2021/06/05 07:20:00;;;;;;;15.00;6.03;;;23.10;51.20;;;;;;6180058;28;83343;-64
2021/06/05 07:23:01;;;;;;;14.18;5.60;;;23.10;52.70;;;;;;6160590;28;80883;-63
2021/06/05 07:26:01;;;;;;;11.38;6.18;;;23.10;53.30;;;;;;6164143;28;81377;-63
2021/06/05 07:29:02;;;;;;;10.55;6.53;;;23.10;54.50;;;;;;6176388;28;80637;-64
2021/06/05 07:32:04;;;;;;;14.48;6.40;;;23.10;54.60;;;;;;6158240;28;80838;-64
2021/06/05 07:35:05;;;;;;;17.25;6.55;;;23.20;55.40;;;;;;6168297;28;80312;-63
2021/06/05 07:38:05;;;;;;;14.88;7.28;;;23.20;57.80;;;;;;6175095;27;81849;-63
2021/06/05 07:41:06;;;;;;;15.73;7.35;;;23.20;59.50;;;;;;6156300;28;82546;-63
2021/06/05 07:44:06;;;;;;;12.55;8.02;;;23.20;60.50;;;;;;6154128;28;80424;-66
2021/06/05 07:47:07;;;;;;;16.48;8.32;;;23.30;62.60;;;;;;6151118;28;80527;-64
2021/06/05 07:50:07;;;;;;;16.63;9.43;;;23.30;63.50;;;;;;6155310;28;81312;-64
2021/06/05 07:53:08;;;;;;;18.10;8.85;;;23.30;63.80;;;;;;6171693;28;83649;-64
2021/06/05 07:56:08;;;;;;;18.05;9.15;;;23.40;63.90;;;;;;6174424;27;80812;-64
2021/06/05 07:59:09;;;;;;;11.63;8.02;;;23.30;61.50;;;;;;6158103;28;80458;-64
2021/06/05 08:02:09;;;;;;;13.55;7.60;;;23.40;60.10;;;;;;6152311;28;83123;-65
2021/06/05 08:05:10;;;;;;;15.43;8.45;;;23.40;60.10;;;;;;6157824;28;81228;-65
2021/06/05 08:08:11;;;;;;;12.15;8.18;;;23.50;59.90;;;;;;6155597;28;81037;-64
2021/06/05 08:11:12;;;;;;;14.40;7.38;;;23.50;59.80;;;;;;6150397;28;81685;-64
2021/06/05 08:14:12;;;;;;;14.95;8.02;;;23.50;59.70;;;;;;6153394;28;80836;-63
2021/06/05 08:17:13;;;;;;;10.23;7.68;;;23.40;60.50;;;;;;6177377;28;80404;-65
2021/06/05 08:20:13;;;;;;;12.82;7.93;;;23.40;60.60;;;;;;6159801;28;80980;-63
2021/06/05 08:23:14;;;;;;;17.40;8.05;;;23.40;60.80;;;;;;6156873;28;80574;-62
2021/06/05 08:26:14;;;;;;;11.70;6.85;;;23.40;59.80;;;;;;6177944;28;80063;-63
2021/06/05 08:29:15;;;;;;;12.80;8.13;;;23.40;59.90;;;;;;6155807;28;80365;-62
2021/06/05 08:32:15;;;;;;;13.05;6.68;;;23.40;59.60;;;;;;6155991;28;81752;-63
2021/06/05 08:35:16;;;;;;;15.73;7.15;;;23.40;59.50;;;;;;6178719;28;82553;-63
2021/06/05 08:38:16;;;;;;;15.07;6.85;;;23.40;60.20;;;;;;6179751;28;80306;-62
2021/06/05 08:41:17;;;;;;;10.90;6.70;;;23.40;59.20;;;;;;6159008;28;80786;-62
2021/06/05 08:44:18;;;;;;;8.25;5.95;;;23.40;59.70;;;;;;6178045;28;80307;-64
2021/06/05 08:47:19;;;;;;;10.02;5.88;;;23.30;59.40;;;;;;6158823;28;80389;-63
2021/06/05 08:50:19;;;;;;;6.95;5.25;;;23.30;58.60;;;;;;6156485;28;80666;-62
2021/06/05 08:53:20;;;;;;;9.38;5.55;;;23.40;58.30;;;;;;6159479;28;81800;-64
2021/06/05 08:56:20;;;;;;;9.23;5.47;;;23.30;57.10;;;;;;6182448;28;80304;-63
2021/06/05 08:59:21;;;;;;;6.70;5.28;;;23.30;57.00;;;;;;6184484;28;80866;-63
2021/06/05 09:02:21;;;;;;;9.43;5.13;;;23.30;56.90;;;;;;6162246;28;80725;-65
2021/06/05 09:05:22;;;;;;;7.60;4.85;;;23.30;56.40;;;;;;6179972;28;80369;-63
2021/06/05 09:08:22;;;;;;;9.07;4.75;;;23.30;56.30;;;;;;6158927;28;80862;-63
2021/06/05 09:11:23;;;;;;;8.65;5.10;;;23.30;56.20;;;;;;6182821;28;80596;-63
2021/06/05 09:14:23;;;;;;;7.38;4.60;;;23.30;56.90;;;;;;6184270;28;80557;-63
2021/06/05 09:17:24;;;;;;;8.32;4.63;;;23.40;56.20;;;;;;6183866;28;81214;-66
2021/06/05 09:20:24;;;;;;;9.25;4.70;;;23.40;56.00;;;;;;6191973;28;81011;-64
2021/06/05 09:23:25;;;;;;;6.45;4.32;;;23.40;55.80;;;;;;6182899;28;80418;-63
2021/06/05 09:26:26;;;;;;;5.88;4.22;;;23.50;55.60;;;;;;6196230;28;83668;-63
2021/06/05 09:29:26;;;;;;;10.90;5.07;;;23.50;55.40;;;;;;6159150;28;80579;-63
2021/06/05 09:32:27;;;;;;;7.25;4.57;;;23.50;56.30;;;;;;6159435;28;81566;-63
2021/06/05 09:35:27;;;;;;;6.93;4.70;;;23.50;55.60;;;;;;6183322;28;81075;-64
2021/06/05 09:38:28;;;;;;;7.90;4.55;;;23.50;55.80;;;;;;6155583;28;80649;-61
2021/06/05 09:41:29;;;;;;;7.13;4.38;;;23.50;55.60;;;;;;6151614;28;80335;-63
2021/06/05 09:44:29;;;;;;;6.88;4.28;;;23.50;54.70;;;;;;6183671;28;80555;-64
2021/06/05 09:47:30;;;;;;;7.28;4.95;;;23.50;55.40;;;;;;6182759;28;81773;-63
2021/06/05 09:50:31;;;;;;;10.75;6.07;;;23.50;58.10;;;;;;6160633;28;82313;-63
2021/06/05 09:53:31;;;;;;;14.90;8.07;;;23.50;59.70;;;;;;6183203;28;80337;-64
2021/06/05 09:56:32;;;;;;;11.23;5.88;;;23.50;58.80;;;;;;6158658;28;80282;-63
2021/06/05 09:59:35;;;;;;;11.35;6.40;;;23.50;57.50;;;;;;6156717;28;80875;-63
2021/06/05 10:02:35;;;;;;;11.15;6.00;;;23.50;59.30;;;;;;6148202;28;80373;-64
2021/06/05 10:05:36;;;;;;;12.10;6.18;;;23.50;59.00;;;;;;6198136;28;85589;-63
2021/06/05 10:08:37;;;;;;;8.38;5.53;;;23.50;58.50;;;;;;6155734;28;84994;-64
2021/06/05 10:11:37;;;;;;;14.93;6.55;;;23.50;57.80;;;;;;6162234;28;82028;-64
2021/06/05 10:14:38;;;;;;;9.40;5.93;;;23.60;57.70;;;;;;6159251;28;80255;-64
2021/06/05 10:17:38;;;;;;;7.07;4.90;;;23.60;57.60;;;;;;6154120;28;81118;-63
2021/06/05 10:20:39;;;;;;;9.85;5.47;;;23.60;57.70;;;;;;6177557;28;80219;-64
2021/06/05 10:23:39;;;;;;;13.63;5.22;;;23.60;57.20;;;;;;6178980;28;80533;-63
2021/06/05 10:26:40;;;;;;;8.60;4.25;;;23.70;56.90;;;;;;6179372;28;80550;-62
2021/06/05 10:29:42;;;;;;;8.38;4.50;;;23.70;56.40;;;;;;6172967;28;81389;-62
2021/06/05 10:32:43;;;;;;;5.70;4.28;;;23.70;56.40;;;;;;6157919;28;80941;-62
2021/06/05 10:35:44;;;;;;;9.02;5.13;;;23.70;56.80;;;;;;6158988;28;82086;-63
2021/06/05 10:38:44;;;;;;;6.97;4.90;;;23.70;56.50;;;;;;6158948;28;80276;-62
2021/06/05 10:41:45;;;;;;;6.75;4.38;;;23.70;56.30;;;;;;6158235;28;80766;-62
2021/06/05 10:44:45;;;;;;;6.97;4.25;;;23.70;56.20;;;;;;6183097;28;80302;-62
2021/06/05 10:47:46;;;;;;;7.97;4.60;;;23.80;56.30;;;;;;6181285;28;80521;-64
2021/06/05 10:50:46;;;;;;;6.43;3.85;;;23.80;55.80;;;;;;6159670;28;80411;-63
2021/06/05 10:53:47;;;;;;;7.90;4.10;;;23.80;55.70;;;;;;6182367;28;80542;-63
2021/06/05 10:56:47;;;;;;;7.63;3.92;;;23.80;55.70;;;;;;6178685;28;81071;-62
2021/06/05 10:59:48;;;;;;;7.47;4.30;;;23.80;55.10;;;;;;6158486;28;81305;-64
2021/06/05 11:02:48;;;;;;;5.57;4.50;;;23.80;55.40;;;;;;6176821;28;80759;-65
2021/06/05 11:05:49;;;;;;;4.60;3.80;;;23.80;55.30;;;;;;6180464;28;83569;-65
2021/06/05 11:08:50;;;;;;;8.32;4.20;;;23.80;55.10;;;;;;6182191;28;80201;-65
2021/06/05 11:11:51;;;;;;;8.48;4.20;;;23.80;54.80;;;;;;6181926;28;82035;-64
2021/06/05 11:14:51;;;;;;;8.52;4.00;;;23.90;54.70;;;;;;6177760;28;83863;-66
2021/06/05 11:17:52;;;;;;;5.47;4.20;;;23.90;54.50;;;;;;6159865;28;80790;-65
2021/06/05 11:20:52;;;;;;;6.68;3.75;;;23.90;54.50;;;;;;6182546;28;80986;-65
2021/06/05 11:23:53;;;;;;;5.88;3.78;;;23.90;54.40;;;;;;6176507;28;80545;-65
2021/06/05 11:26:53;;;;;;;8.77;4.18;;;23.90;53.60;;;;;;6159242;28;80801;-65
2021/06/05 11:29:54;;;;;;;9.98;3.70;;;23.90;53.60;;;;;;6180481;28;81125;-65
2021/06/05 11:32:55;;;;;;;4.53;3.55;;;23.80;53.90;;;;;;6181619;28;80611;-65
2021/06/05 11:35:59;;;;;;;7.32;3.58;;;23.90;53.60;;;;;;6179504;28;81108;-65
2021/06/05 11:39:00;;;;;;;4.80;3.45;;;23.80;53.80;;;;;;6160805;28;80549;-65
2021/06/05 11:42:00;;;;;;;7.13;3.45;;;23.90;53.20;;;;;;6181525;28;80346;-69
2021/06/05 11:45:01;;;;;;;4.63;3.28;;;23.90;53.30;;;;;;6179672;28;80337;-67
2021/06/05 11:48:01;;;;;;;6.50;3.53;;;23.90;52.30;;;;;;6181563;28;80412;-66
2021/06/05 11:51:02;;;;;;;4.05;3.50;;;23.90;52.30;;;;;;6171554;28;81515;-67
2021/06/05 11:54:02;;;;;;;5.57;3.60;;;24.00;51.50;;;;;;6180958;28;81561;-66
2021/06/05 11:57:03;;;;;;;4.45;3.53;;;24.00;51.40;;;;;;6176902;28;81418;-68
2021/06/05 12:00:03;;;;;;;6.78;3.70;;;24.00;51.10;;;;;;6154974;28;80931;-67
2021/06/05 12:03:05;;;;;;;4.03;3.00;;;24.00;51.40;;;;;;6161150;28;80383;-68
2021/06/05 12:06:06;;;;;;;6.25;3.65;;;24.00;51.80;;;;;;6180535;28;80663;-67
2021/06/05 12:44:05;;;;;;;7.72;3.95;;;23.00;54.40;;;;;;6263280;27;76933;-66
2021/06/05 12:47:06;;;;;;;10.50;4.18;;;23.30;56.50;;;;;;6219335;27;81769;-66
2021/06/05 12:50:06;;;;;;;4.50;4.10;;;23.40;55.60;;;;;;6226245;28;80585;-67
2021/06/05 12:53:07;;;;;;;5.43;4.07;;;23.60;55.50;;;;;;6229504;27;80249;-66
2021/06/05 12:56:07;;;;;;;6.10;4.43;;;23.60;55.40;;;;;;6228840;27;80582;-66
2021/06/05 12:59:08;;;;;;;6.53;4.25;;;23.70;55.30;;;;;;6231139;28;81346;-66
2021/06/05 13:02:08;;;;;;;6.95;4.50;;;23.80;55.30;;;;;;6226715;28;80354;-67
2021/06/05 13:05:09;;;;;;;4.85;4.10;;;23.80;55.30;;;;;;6224267;28;81338;-66
2021/06/05 13:08:09;;;;;;;5.97;4.30;;;23.80;55.20;;;;;;6235201;28;80850;-67
2021/06/05 13:11:13;;;;;;;7.72;3.95;;;23.80;55.20;;;;;;6226901;28;80299;-67
2021/06/05 13:14:13;;;;;;;4.55;3.47;;;23.80;55.20;;;;;;6227292;28;81282;-65
2021/06/05 13:17:14;;;;;;;6.05;3.55;;;23.80;55.00;;;;;;6202935;28;81233;-68
2021/06/05 13:20:14;;;;;;;8.15;4.07;;;23.90;55.00;;;;;;6209372;27;82065;-65
2021/06/05 13:23:15;;;;;;;5.38;4.22;;;23.90;55.10;;;;;;6228996;27;82601;-66
2021/06/05 13:26:15;;;;;;;7.93;5.32;;;23.90;55.30;;;;;;6227166;28;80290;-67
2021/06/05 13:29:16;;;;;;;6.18;4.40;;;23.90;55.20;;;;;;6226940;28;87551;-67
2021/06/05 13:32:16;;;;;;;4.80;3.95;;;24.00;55.00;;;;;;6227743;27;80901;-67
2021/06/05 13:35:17;;;;;;;5.18;4.53;;;23.90;54.80;;;;;;6226522;28;80487;-67
2021/06/05 13:38:17;;;;;;;10.25;4.05;;;23.80;55.20;;;;;;6249680;27;80822;-66
2021/06/05 13:41:18;;;;;;;5.13;4.00;;;23.80;55.00;;;;;;6249971;27;83221;-65
2021/06/05 13:44:18;;;;;;;5.00;4.10;;;23.90;55.30;;;;;;6255560;27;80346;-66
2021/06/05 13:47:19;;;;;;;5.13;4.20;;;23.90;55.10;;;;;;6252069;27;80368;-66
2021/06/05 13:50:20;;;;;;;6.38;3.78;;;23.90;55.30;;;;;;6251210;27;80598;-65
2021/06/05 13:53:20;;;;;;;5.65;4.18;;;23.90;55.20;;;;;;6245320;27;82680;-65
2021/06/05 13:56:21;;;;;;;4.82;4.13;;;23.90;55.60;;;;;;6235964;27;80659;-66
2021/06/05 13:59:21;;;;;;;7.00;4.47;;;23.90;55.30;;;;;;6237975;27;84859;-63
2021/06/05 14:02:22;;;;;;;4.70;3.67;;;23.90;55.70;;;;;;6235701;27;81054;-64
2021/06/05 14:05:22;;;;;;;4.70;4.05;;;23.80;55.50;;;;;;6237097;27;80689;-65
2021/06/05 14:08:23;;;;;;;7.30;4.35;;;23.90;55.80;;;;;;6224555;27;80510;-64
2021/06/05 14:11:23;;;;;;;5.88;4.20;;;23.90;55.70;;;;;;6232639;27;80562;-65
2021/06/05 14:14:24;;;;;;;5.18;4.32;;;24.00;55.50;;;;;;6235198;27;80524;-65
2021/06/05 14:17:24;;;;;;;15.23;4.40;;;24.00;55.40;;;;;;6234501;27;80700;-65
2021/06/05 14:20:25;;;;;;;6.22;3.95;;;24.00;54.50;;;;;;6233651;27;80514;-64
2021/06/05 14:23:25;;;;;;;8.40;4.30;;;23.90;55.00;;;;;;6239564;27;80684;-64
2021/06/05 14:26:26;;;;;;;5.30;4.40;;;23.90;54.60;;;;;;6234454;27;80690;-65
2021/06/05 14:29:26;;;;;;;8.70;4.70;;;23.90;54.70;;;;;;6234694;28;80778;-65
2021/06/05 14:32:28;;;;;;;6.63;3.92;;;23.90;55.30;;;;;;6234581;27;81361;-65
2021/06/05 14:35:29;;;;;;;6.82;4.20;;;23.90;55.50;;;;;;6234189;27;81175;-65
2021/06/05 14:38:30;;;;;;;9.88;4.38;;;23.90;55.60;;;;;;6233593;28;80380;-66
2021/06/05 14:41:31;;;;;;;8.27;3.65;;;23.90;55.70;;;;;;6222748;27;81668;-64
2021/06/05 14:44:32;;;;;;;7.03;3.20;;;23.80;55.50;;;;;;6241227;27;80643;-64
2021/06/05 14:47:32;;;;;;;4.10;2.78;;;23.80;55.60;;;;;;6223683;27;80770;-64
2021/06/05 14:50:33;;;;;;;4.57;3.13;;;23.80;55.30;;;;;;6244109;27;80304;-64
2021/06/05 14:53:33;;;;;;;6.65;3.00;;;23.80;54.90;;;;;;6234945;27;80673;-63
2021/06/05 14:56:34;;;;;;;7.00;2.90;;;23.80;54.90;;;;;;6240521;27;80620;-63
2021/06/05 14:59:34;;;;;;;8.48;3.33;;;23.80;54.20;;;;;;6233359;27;80480;-63
2021/06/05 15:02:35;;;;;;;6.50;3.03;;;23.80;54.50;;;;;;6234874;27;83283;-63
2021/06/05 15:05:35;;;;;;;8.20;3.33;;;23.90;54.10;;;;;;6231871;27;81247;-62
2021/06/05 15:08:36;;;;;;;5.90;3.40;;;23.90;55.00;;;;;;6232449;27;83072;-63
2021/06/05 15:11:36;;;;;;;3.95;2.80;;;23.90;54.70;;;;;;6232442;27;80714;-63
2021/06/05 15:14:37;;;;;;;4.57;2.90;;;23.90;54.70;;;;;;6231345;27;80854;-63
2021/06/05 15:17:38;;;;;;;6.13;3.38;;;23.90;54.60;;;;;;6232210;27;80545;-63
2021/06/05 15:20:38;;;;;;;6.10;3.10;;;23.90;54.60;;;;;;6234458;27;80433;-63
2021/06/05 15:23:40;;;;;;;6.35;3.83;;;23.90;54.90;;;;;;6234512;27;80718;-63
2021/06/05 15:26:41;;;;;;;11.38;4.03;;;23.80;55.30;;;;;;6236720;27;80449;-63
2021/06/05 15:29:41;;;;;;;5.35;3.42;;;23.90;55.00;;;;;;6235771;27;80537;-62
2021/06/05 15:32:42;;;;;;;6.25;3.97;;;23.90;55.80;;;;;;6236886;27;81108;-63
2021/06/05 15:35:42;;;;;;;10.13;5.28;;;23.90;55.40;;;;;;6235040;27;83062;-62
2021/06/05 15:38:43;;;;;;;10.13;4.90;;;23.90;55.20;;;;;;6230104;27;80432;-63
2021/06/05 15:41:43;;;;;;;7.20;5.32;;;23.90;55.40;;;;;;6226031;27;80187;-63
2021/06/05 15:44:45;;;;;;;7.10;5.13;;;23.80;55.30;;;;;;6235178;27;80325;-63
2021/06/05 15:47:46;;;;;;;8.25;5.05;;;23.80;55.30;;;;;;6234200;27;80523;-62
2021/06/05 15:50:46;;;;;;;6.65;5.45;;;23.80;55.20;;;;;;6234365;27;80931;-62
2021/06/05 15:53:47;;;;;;;12.10;5.78;;;23.80;55.10;;;;;;6241706;27;81314;-63
2021/06/05 15:56:47;;;;;;;10.75;5.75;;;23.80;55.30;;;;;;6233481;27;80883;-63
2021/06/05 15:59:48;;;;;;;11.23;5.57;;;23.70;55.40;;;;;;6233595;27;81397;-63
2021/06/05 16:02:48;;;;;;;11.65;5.75;;;23.70;56.20;;;;;;6230929;27;80658;-63
2021/06/05 16:05:49;;;;;;;7.85;5.60;;;23.70;56.30;;;;;;6232559;27;80544;-63
2021/06/05 16:08:49;;;;;;;90.85;32.55;;;23.70;56.50;;;;;;6231431;27;82047;-63
2021/06/05 16:11:50;;;;;;;234.00;81.13;;;23.70;56.50;;;;;;6230080;27;83257;-62